SAS956 EDDN-ESGG
Flight info
| Callsign | SAS956 |
|---|---|
| Flight time | N/A |
| Altitude | 37000 |
| Route | SULUS1G/28 SULUS L604 MASEK DCT ELNAT P605 GESKA Z706 NOVPO L997 RISMA |
| Aircraft | A319/M-SDE3FGHIRWY/LB1 |
Departure
| Time | N/A |
|---|---|
| Airport | Nuremberg Airport (EDDN) |
Arrival
| Time | 2026-05-07 18:16 |
|---|---|
| Airport | Göteborg Landvetter Airport (ESGG) |
| Time | Latitude | Longitude | Altitude | Speed | Heading |
|---|---|---|---|---|---|
| 2026-05-07 17:11 | 51.59394 | 9.75728 | 36230 ft | 443 kts | 7° |
| 2026-05-07 17:12 | 51.62468 | 9.76334 | 37214 ft | 446 kts | 6° |
| 2026-05-07 17:12 | 51.65548 | 9.76931 | 37072 ft | 447 kts | 6° |
| 2026-05-07 17:12 | 51.71780 | 9.78115 | 37091 ft | 456 kts | 6° |
| 2026-05-07 17:13 | 51.78135 | 9.79307 | 37095 ft | 460 kts | 5° |
| 2026-05-07 17:13 | 51.84471 | 9.80505 | 37105 ft | 461 kts | 6° |
| 2026-05-07 17:14 | 51.90847 | 9.81730 | 37094 ft | 460 kts | 6° |
| 2026-05-07 17:14 | 51.97185 | 9.82966 | 37102 ft | 460 kts | 6° |
| 2026-05-07 17:15 | 52.03564 | 9.84220 | 37102 ft | 460 kts | 6° |
| 2026-05-07 17:15 | 52.09930 | 9.85462 | 37105 ft | 460 kts | 6° |
| 2026-05-07 17:16 | 52.16247 | 9.86688 | 37103 ft | 461 kts | 6° |
| 2026-05-07 17:16 | 52.22635 | 9.87934 | 37086 ft | 463 kts | 6° |
| 2026-05-07 17:17 | 52.28964 | 9.90119 | 37090 ft | 466 kts | 14° |
| 2026-05-07 17:17 | 52.35234 | 9.92883 | 37096 ft | 466 kts | 14° |
| 2026-05-07 17:18 | 52.41475 | 9.95621 | 37106 ft | 467 kts | 14° |
| 2026-05-07 17:18 | 52.47766 | 9.98397 | 37081 ft | 467 kts | 14° |
| 2026-05-07 17:19 | 52.54010 | 10.01166 | 37077 ft | 467 kts | 14° |
| 2026-05-07 17:19 | 52.60289 | 10.03971 | 37080 ft | 467 kts | 14° |
| 2026-05-07 17:20 | 52.66566 | 10.06782 | 37082 ft | 467 kts | 14° |
| 2026-05-07 17:20 | 52.71795 | 10.09124 | 37086 ft | 467 kts | 14° |
| 2026-05-07 17:21 | 52.78135 | 10.11601 | 37079 ft | 467 kts | 6° |
| 2026-05-07 17:21 | 52.84576 | 10.11993 | 37099 ft | 466 kts | 0° |
| 2026-05-07 17:22 | 52.91084 | 10.12206 | 37088 ft | 466 kts | 0° |
| 2026-05-07 17:22 | 52.97537 | 10.12421 | 37096 ft | 466 kts | 0° |
| 2026-05-07 17:23 | 53.04029 | 10.12627 | 37087 ft | 466 kts | 0° |
| 2026-05-07 17:23 | 53.10522 | 10.12851 | 37087 ft | 466 kts | 0° |
| 2026-05-07 17:24 | 53.17017 | 10.13075 | 37087 ft | 466 kts | 0° |
| 2026-05-07 17:24 | 53.23464 | 10.13290 | 37089 ft | 466 kts | 0° |
| 2026-05-07 17:25 | 53.29968 | 10.13509 | 37101 ft | 466 kts | 0° |
| 2026-05-07 17:25 | 53.36465 | 10.13726 | 37112 ft | 466 kts | 0° |
| 2026-05-07 17:26 | 53.42893 | 10.14554 | 37097 ft | 467 kts | 7° |
| 2026-05-07 17:26 | 53.49340 | 10.16046 | 37112 ft | 467 kts | 7° |
| 2026-05-07 17:27 | 53.55785 | 10.17528 | 37117 ft | 467 kts | 7° |
| 2026-05-07 17:27 | 53.62234 | 10.19042 | 37115 ft | 467 kts | 9° |
| 2026-05-07 17:28 | 53.68330 | 10.22608 | 37105 ft | 469 kts | 28° |
| 2026-05-07 17:28 | 53.73477 | 10.29356 | 37104 ft | 470 kts | 47° |
| 2026-05-07 17:29 | 53.77934 | 10.37415 | 37108 ft | 471 kts | 46° |
| 2026-05-07 17:29 | 53.82422 | 10.45510 | 37131 ft | 471 kts | 47° |
| 2026-05-07 17:30 | 53.86891 | 10.53623 | 37120 ft | 470 kts | 47° |
| 2026-05-07 17:30 | 53.91323 | 10.61729 | 37114 ft | 470 kts | 47° |
| 2026-05-07 17:31 | 53.95781 | 10.69889 | 37112 ft | 471 kts | 46° |
| 2026-05-07 17:31 | 54.00267 | 10.78035 | 37117 ft | 471 kts | 46° |
| 2026-05-07 17:32 | 54.04726 | 10.86144 | 37134 ft | 471 kts | 47° |
| 2026-05-07 17:32 | 54.09190 | 10.94312 | 37139 ft | 470 kts | 47° |
| 2026-05-07 17:33 | 54.13608 | 11.02438 | 37137 ft | 469 kts | 47° |
| 2026-05-07 17:33 | 54.18042 | 11.10649 | 37132 ft | 469 kts | 47° |
| 2026-05-07 17:34 | 54.22457 | 11.18868 | 37129 ft | 469 kts | 47° |
| 2026-05-07 17:34 | 54.26835 | 11.27070 | 37135 ft | 469 kts | 47° |
| 2026-05-07 17:35 | 54.31228 | 11.35330 | 37136 ft | 469 kts | 47° |
| 2026-05-07 17:35 | 54.35621 | 11.43608 | 37130 ft | 468 kts | 47° |
| 2026-05-07 17:36 | 54.40006 | 11.51902 | 37134 ft | 468 kts | 47° |
| 2026-05-07 17:36 | 54.44361 | 11.60153 | 37139 ft | 469 kts | 47° |
| 2026-05-07 17:37 | 54.48741 | 11.68457 | 37146 ft | 468 kts | 47° |
| 2026-05-07 17:37 | 54.53118 | 11.76751 | 37147 ft | 467 kts | 47° |
| 2026-05-07 17:38 | 54.57473 | 11.84965 | 37144 ft | 466 kts | 44° |
| 2026-05-07 17:38 | 54.62704 | 11.91478 | 37151 ft | 464 kts | 25° |
| 2026-05-07 17:39 | 54.68851 | 11.94664 | 37144 ft | 462 kts | 6° |
| 2026-05-07 17:39 | 54.75207 | 11.95934 | 37146 ft | 461 kts | 6° |
| 2026-05-07 17:40 | 54.81592 | 11.97206 | 37149 ft | 461 kts | 6° |
| 2026-05-07 17:40 | 54.87977 | 11.98504 | 37154 ft | 461 kts | 6° |
| 2026-05-07 17:41 | 54.94314 | 11.99799 | 37160 ft | 461 kts | 6° |
| 2026-05-07 17:41 | 55.00694 | 12.01088 | 37149 ft | 461 kts | 6° |
| 2026-05-07 17:42 | 55.07078 | 12.02385 | 37151 ft | 461 kts | 6° |
| 2026-05-07 17:42 | 55.13415 | 12.03685 | 37152 ft | 461 kts | 6° |
| 2026-05-07 17:43 | 55.19793 | 12.04989 | 37152 ft | 461 kts | 6° |
| 2026-05-07 17:43 | 55.26165 | 12.06296 | 37162 ft | 461 kts | 6° |
| 2026-05-07 17:44 | 55.32532 | 12.07614 | 37154 ft | 461 kts | 6° |
| 2026-05-07 17:44 | 55.38867 | 12.08927 | 37159 ft | 461 kts | 6° |
| 2026-05-07 17:45 | 55.45240 | 12.10248 | 37150 ft | 460 kts | 6° |
| 2026-05-07 17:45 | 55.51616 | 12.11578 | 37150 ft | 460 kts | 6° |
| 2026-05-07 17:46 | 55.57978 | 12.12910 | 37166 ft | 459 kts | 6° |
| 2026-05-07 17:46 | 55.64314 | 12.14238 | 37164 ft | 457 kts | 6° |
| 2026-05-07 17:47 | 55.70595 | 12.15564 | 37172 ft | 456 kts | 6° |
| 2026-05-07 17:47 | 55.76910 | 12.16903 | 37158 ft | 456 kts | 6° |
| 2026-05-07 17:48 | 55.83209 | 12.18241 | 37155 ft | 456 kts | 5° |
| 2026-05-07 17:48 | 55.89482 | 12.19568 | 37153 ft | 455 kts | 5° |
| 2026-05-07 17:49 | 55.95789 | 12.20897 | 37150 ft | 455 kts | 6° |
| 2026-05-07 17:49 | 56.02094 | 12.22249 | 37152 ft | 455 kts | 6° |
| 2026-05-07 17:50 | 56.08351 | 12.23587 | 37148 ft | 455 kts | 4° |
| 2026-05-07 17:50 | 56.14640 | 12.23050 | 36892 ft | 452 kts | 350° |
| 2026-05-07 17:51 | 56.17758 | 12.22194 | 36631 ft | 451 kts | 350° |
| 2026-05-07 17:51 | 56.20861 | 12.21346 | 36377 ft | 450 kts | 351° |
| 2026-05-07 17:51 | 56.23953 | 12.20504 | 35948 ft | 448 kts | 351° |
| 2026-05-07 17:51 | 56.27032 | 12.19662 | 35399 ft | 446 kts | 351° |
| 2026-05-07 17:52 | 56.30060 | 12.18825 | 34846 ft | 444 kts | 351° |
| 2026-05-07 17:52 | 56.33116 | 12.17974 | 34287 ft | 442 kts | 351° |
| 2026-05-07 17:52 | 56.36158 | 12.17126 | 33624 ft | 440 kts | 351° |
| 2026-05-07 17:52 | 56.39192 | 12.16281 | 32844 ft | 440 kts | 351° |
| 2026-05-07 17:53 | 56.42192 | 12.15451 | 31992 ft | 443 kts | 351° |
| 2026-05-07 17:53 | 56.45244 | 12.14605 | 31314 ft | 439 kts | 351° |
| 2026-05-07 17:53 | 56.48210 | 12.13780 | 31178 ft | 421 kts | 351° |
| 2026-05-07 17:53 | 56.51051 | 12.12991 | 31054 ft | 404 kts | 351° |
| 2026-05-07 17:54 | 56.53784 | 12.12233 | 30826 ft | 390 kts | 350° |
| 2026-05-07 17:54 | 56.56419 | 12.11497 | 30401 ft | 384 kts | 350° |
| 2026-05-07 17:54 | 56.59070 | 12.11101 | 29623 ft | 386 kts | 360° |
| 2026-05-07 17:54 | 56.61796 | 12.11264 | 28454 ft | 394 kts | 1° |
| 2026-05-07 17:55 | 56.64538 | 12.11503 | 27560 ft | 394 kts | 1° |
| 2026-05-07 17:55 | 56.67272 | 12.11780 | 26788 ft | 391 kts | 1° |
| 2026-05-07 17:55 | 56.69982 | 12.12066 | 26069 ft | 388 kts | 1° |
| 2026-05-07 17:55 | 56.72667 | 12.12341 | 25386 ft | 384 kts | 1° |
| 2026-05-07 17:56 | 56.75325 | 12.12596 | 24745 ft | 380 kts | 1° |
| 2026-05-07 17:56 | 56.77914 | 12.12832 | 24262 ft | 373 kts | 1° |
| 2026-05-07 17:56 | 56.80472 | 12.13062 | 23850 ft | 363 kts | 0° |
| 2026-05-07 17:56 | 56.82961 | 12.13284 | 23402 ft | 353 kts | 0° |
| 2026-05-07 17:57 | 56.85385 | 12.13502 | 22993 ft | 342 kts | 0° |
| 2026-05-07 17:57 | 56.86946 | 12.13643 | 22741 ft | 336 kts | 0° |
| 2026-05-07 17:57 | 56.90035 | 12.13918 | 22231 ft | 329 kts | 0° |
| 2026-05-07 17:57 | 56.92305 | 12.14120 | 21853 ft | 324 kts | 0° |
| 2026-05-07 17:58 | 56.94521 | 12.14317 | 21486 ft | 320 kts | 0° |
| 2026-05-07 17:58 | 56.96730 | 12.14514 | 21122 ft | 316 kts | 0° |
| 2026-05-07 17:58 | 56.98916 | 12.14712 | 20755 ft | 312 kts | 0° |
| 2026-05-07 17:58 | 57.01075 | 12.14909 | 20388 ft | 309 kts | 0° |
| 2026-05-07 17:59 | 57.03225 | 12.15104 | 20028 ft | 308 kts | 1° |
| 2026-05-07 17:59 | 57.05379 | 12.15301 | 19667 ft | 308 kts | 1° |
| 2026-05-07 17:59 | 57.07515 | 12.15501 | 19313 ft | 307 kts | 0° |
| 2026-05-07 17:59 | 57.09625 | 12.15700 | 18955 ft | 307 kts | 0° |
| 2026-05-07 18:00 | 57.11760 | 12.15900 | 18586 ft | 306 kts | 0° |
| 2026-05-07 18:00 | 57.13895 | 12.16100 | 18214 ft | 306 kts | 0° |
| 2026-05-07 18:00 | 57.16018 | 12.16298 | 17842 ft | 304 kts | 0° |
| 2026-05-07 18:00 | 57.18130 | 12.16494 | 17488 ft | 303 kts | 0° |
| 2026-05-07 18:01 | 57.20227 | 12.16690 | 17134 ft | 301 kts | 0° |
| 2026-05-07 18:01 | 57.22312 | 12.16883 | 16781 ft | 299 kts | 0° |
| 2026-05-07 18:01 | 57.24394 | 12.17075 | 16427 ft | 298 kts | 1° |
| 2026-05-07 18:01 | 57.26461 | 12.17267 | 16081 ft | 297 kts | 1° |
| 2026-05-07 18:02 | 57.30551 | 12.17641 | 15396 ft | 294 kts | 1° |
| 2026-05-07 18:02 | 57.32596 | 12.17830 | 15052 ft | 293 kts | 1° |
| 2026-05-07 18:02 | 57.34635 | 12.18013 | 14711 ft | 292 kts | 0° |
| 2026-05-07 18:03 | 57.36667 | 12.18198 | 14366 ft | 292 kts | 0° |
| 2026-05-07 18:03 | 57.38671 | 12.18382 | 14026 ft | 291 kts | 0° |
| 2026-05-07 18:03 | 57.40698 | 12.18570 | 13659 ft | 290 kts | 1° |
| 2026-05-07 18:03 | 57.42714 | 12.18760 | 13311 ft | 289 kts | 1° |
| 2026-05-07 18:04 | 57.44714 | 12.18949 | 12975 ft | 287 kts | 1° |
| 2026-05-07 18:04 | 57.46706 | 12.19139 | 12636 ft | 285 kts | 1° |
| 2026-05-07 18:04 | 57.48680 | 12.19326 | 12297 ft | 284 kts | 1° |
| 2026-05-07 18:04 | 57.50648 | 12.19510 | 11961 ft | 282 kts | 1° |
| 2026-05-07 18:05 | 57.52611 | 12.19693 | 11627 ft | 281 kts | 0° |
| 2026-05-07 18:05 | 57.54540 | 12.19874 | 11297 ft | 280 kts | 0° |
| 2026-05-07 18:05 | 57.56484 | 12.20059 | 10960 ft | 279 kts | 1° |
| 2026-05-07 18:05 | 57.58423 | 12.20245 | 10626 ft | 278 kts | 1° |
| 2026-05-07 18:06 | 57.60357 | 12.20432 | 10294 ft | 277 kts | 1° |
| 2026-05-07 18:06 | 57.62291 | 12.20615 | 9961 ft | 277 kts | 0° |
| 2026-05-07 18:06 | 57.64217 | 12.20793 | 9602 ft | 276 kts | 1° |
| 2026-05-07 18:06 | 57.66106 | 12.20967 | 9257 ft | 274 kts | 1° |
| 2026-05-07 18:07 | 57.68009 | 12.21147 | 8925 ft | 273 kts | 1° |
| 2026-05-07 18:07 | 57.69902 | 12.21328 | 8598 ft | 272 kts | 1° |
| 2026-05-07 18:07 | 57.71786 | 12.21508 | 8271 ft | 270 kts | 2° |
| 2026-05-07 18:07 | 57.73668 | 12.21689 | 7945 ft | 269 kts | 2° |
| 2026-05-07 18:08 | 57.75541 | 12.21868 | 7616 ft | 268 kts | 2° |
| 2026-05-07 18:08 | 57.77387 | 12.22047 | 7294 ft | 268 kts | 2° |
| 2026-05-07 18:08 | 57.79249 | 12.22234 | 6967 ft | 268 kts | 4° |
| 2026-05-07 18:08 | 57.81075 | 12.22933 | 6632 ft | 268 kts | 19° |
| 2026-05-07 18:09 | 57.82204 | 12.23868 | 6424 ft | 266 kts | 29° |
| 2026-05-07 18:09 | 57.83816 | 12.25493 | 6260 ft | 257 kts | 29° |
| 2026-05-07 18:09 | 57.85252 | 12.27259 | 6145 ft | 239 kts | 44° |
| 2026-05-07 18:09 | 57.86270 | 12.29628 | 5809 ft | 229 kts | 62° |
| 2026-05-07 18:10 | 57.86822 | 12.32384 | 5377 ft | 223 kts | 81° |
| 2026-05-07 18:10 | 57.86951 | 12.35251 | 4938 ft | 219 kts | 90° |
| 2026-05-07 18:10 | 57.86715 | 12.38055 | 4391 ft | 219 kts | 112° |
| 2026-05-07 18:10 | 57.85918 | 12.40380 | 4168 ft | 205 kts | 136° |
| 2026-05-07 18:11 | 57.84819 | 12.41856 | 4062 ft | 192 kts | 155° |
| 2026-05-07 18:11 | 57.83525 | 12.42543 | 3920 ft | 193 kts | 175° |
| 2026-05-07 18:11 | 57.82207 | 12.42373 | 3757 ft | 185 kts | 194° |
| 2026-05-07 18:11 | 57.81044 | 12.41490 | 3508 ft | 177 kts | 206° |
| 2026-05-07 18:12 | 57.79961 | 12.40493 | 3273 ft | 168 kts | 206° |
| 2026-05-07 18:12 | 57.78936 | 12.39551 | 3055 ft | 159 kts | 206° |
| 2026-05-07 18:12 | 57.77985 | 12.38679 | 2841 ft | 150 kts | 207° |
| 2026-05-07 18:12 | 57.77055 | 12.37826 | 2639 ft | 147 kts | 207° |
| 2026-05-07 18:13 | 57.76147 | 12.36995 | 2450 ft | 140 kts | 207° |
| 2026-05-07 18:13 | 57.75293 | 12.36218 | 2242 ft | 136 kts | 208° |
| 2026-05-07 18:13 | 57.74450 | 12.35442 | 2022 ft | 135 kts | 209° |
| 2026-05-07 18:13 | 57.73608 | 12.34661 | 1832 ft | 135 kts | 210° |
| 2026-05-07 18:14 | 57.72762 | 12.33875 | 1624 ft | 135 kts | 212° |
| 2026-05-07 18:14 | 57.71924 | 12.33089 | 1399 ft | 135 kts | 209° |
| 2026-05-07 18:14 | 57.71068 | 12.32364 | 1210 ft | 134 kts | 209° |
| 2026-05-07 18:14 | 57.70252 | 12.31610 | 1042 ft | 131 kts | 212° |
| 2026-05-07 18:15 | 57.69432 | 12.30856 | 928 ft | 131 kts | 210° |
| 2026-05-07 18:15 | 57.68609 | 12.30113 | 780 ft | 131 kts | 212° |
| 2026-05-07 18:15 | 57.67793 | 12.29362 | 615 ft | 129 kts | 211° |
| 2026-05-07 18:15 | 57.67027 | 12.28646 | 514 ft | 113 kts | 208° |
| 2026-05-07 18:16 | 57.66470 | 12.28145 | 511 ft | 62 kts | 205° |
| 2026-05-07 18:16 | 57.66195 | 12.27921 | 509 ft | 29 kts | 180° |
| 2026-05-07 18:16 | 57.66108 | 12.28124 | 509 ft | 17 kts | 86° |
| 2026-05-07 18:16 | 57.66185 | 12.28238 | 510 ft | 13 kts | 26° |
| 2026-05-07 18:17 | 57.66237 | 12.28286 | 510 ft | 6 kts | 26° |
| 2026-05-07 18:17 | 57.66245 | 12.28293 | 510 ft | 2 kts | 26° |
| 2026-05-07 18:17 | 57.66262 | 12.28309 | 511 ft | 4 kts | 26° |
| 2026-05-07 18:17 | 57.66294 | 12.28337 | 511 ft | 6 kts | 25° |
| 2026-05-07 18:18 | 57.66341 | 12.28380 | 511 ft | 9 kts | 26° |
| 2026-05-07 18:18 | 57.66405 | 12.28438 | 511 ft | 12 kts | 26° |
| 2026-05-07 18:18 | 57.66490 | 12.28515 | 512 ft | 15 kts | 26° |
| 2026-05-07 18:18 | 57.66593 | 12.28609 | 512 ft | 18 kts | 26° |
| 2026-05-07 18:19 | 57.66712 | 12.28718 | 513 ft | 20 kts | 26° |
| 2026-05-07 18:19 | 57.66834 | 12.28829 | 513 ft | 17 kts | 26° |
| 2026-05-07 18:19 | 57.66946 | 12.28930 | 514 ft | 19 kts | 26° |
| 2026-05-07 18:19 | 57.67032 | 12.29018 | 514 ft | 13 kts | 48° |
| 2026-05-07 18:20 | 57.67025 | 12.29143 | 516 ft | 7 kts | 115° |
| 2026-05-07 18:20 | 57.67008 | 12.29207 | 516 ft | 0 kts | 116° |
| 2026-05-07 18:21 | 57.67008 | 12.29208 | 516 ft | 0 kts | 116° |
| 2026-05-07 18:22 | 57.67004 | 12.29225 | 516 ft | 4 kts | 117° |
| 2026-05-07 18:22 | 57.66983 | 12.29298 | 516 ft | 9 kts | 118° |
| 2026-05-07 18:23 | 57.66920 | 12.29317 | 516 ft | 10 kts | 158° |
| 2026-05-07 18:23 | 57.66893 | 12.29403 | 516 ft | 5 kts | 115° |
| 2026-05-07 18:23 | 57.66886 | 12.29429 | 516 ft | 0 kts | 116° |